Time;durP1;ratioP1;P1;durP2;ratioP2;P2;SDS_P1;SDS_P2;PMS_P1;PMS_P2;Temp;Humidity;BMP_temperature;BMP_pressure;BME280_temperature;BME280_humidity;BME280_pressure;Samples;Min_cycle;Max_cycle;Signal;HPM_P1;HPM_P2
2022/09/10 00:01:09;;;;;;;13.03;9.73;;;;;;;;;;4886612;29;21066;-42
2022/09/10 00:03:35;;;;;;;16.20;10.67;;;;;;;;;;4885633;28;20188;-43
2022/09/10 00:06:03;;;;;;;15.13;10.30;;;;;;;;;;4887848;29;20214;-42
2022/09/10 00:08:32;;;;;;;17.13;11.17;;;;;;;;;;4884118;29;20735;-42
2022/09/10 00:11:03;;;;;;;19.37;12.17;;;;;;;;;;4888995;29;21013;-42
2022/09/10 00:13:29;;;;;;;15.17;10.50;;;;;;;;;;4885561;29;20279;-41
2022/09/10 00:15:55;;;;;;;20.10;12.03;;;;;;;;;;4885030;29;20389;-42
2022/09/10 00:18:22;;;;;;;16.93;12.40;;;;;;;;;;4888077;29;20187;-42
2022/09/10 00:20:50;;;;;;;17.30;12.50;;;;;;;;;;4888037;29;20295;-43
2022/09/10 00:23:17;;;;;;;19.37;13.97;;;;;;;;;;4883825;29;20715;-43
2022/09/10 00:25:44;;;;;;;18.23;12.43;;;;;;;;;;4885335;29;20393;-41
2022/09/10 00:28:10;;;;;;;22.70;14.33;;;;;;;;;;4888572;29;20234;-42
2022/09/10 00:30:40;;;;;;;23.07;13.80;;;;;;;;;;4888222;29;20192;-43
2022/09/10 00:33:07;;;;;;;16.87;12.43;;;;;;;;;;4888310;29;20434;-42
2022/09/10 00:35:34;;;;;;;19.03;12.50;;;;;;;;;;4888489;29;20184;-44
2022/09/10 00:38:00;;;;;;;18.83;12.20;;;;;;;;;;4887229;29;20685;-42
2022/09/10 00:40:26;;;;;;;21.73;12.43;;;;;;;;;;4886762;29;20219;-43
2022/09/10 00:42:52;;;;;;;19.80;12.77;;;;;;;;;;4887713;29;20184;-43
2022/09/10 00:45:20;;;;;;;17.53;13.30;;;;;;;;;;4885839;29;20322;-42
2022/09/10 00:47:49;;;;;;;22.17;13.77;;;;;;;;;;4885195;29;20910;-42
2022/09/10 00:50:25;;;;;;;16.60;12.90;;;;;;;;;;4886886;29;20184;-42
2022/09/10 00:52:53;;;;;;;17.93;13.60;;;;;;;;;;4882896;29;21350;-43
2022/09/10 00:55:20;;;;;;;16.47;12.97;;;;;;;;;;4884150;29;20184;-43
2022/09/10 00:57:48;;;;;;;14.67;11.50;;;;;;;;;;4885687;29;20640;-42
2022/09/10 01:00:15;;;;;;;19.47;12.83;;;;;;;;;;4889425;29;20900;-42
2022/09/10 01:02:42;;;;;;;18.20;12.80;;;;;;;;;;4887369;28;20459;-42
2022/09/10 01:05:09;;;;;;;16.10;12.80;;;;;;;;;;4881138;29;20535;-42
2022/09/10 01:07:35;;;;;;;18.50;13.60;;;;;;;;;;4882991;29;20257;-42
2022/09/10 01:10:22;;;;;;;16.40;13.10;;;;;;;;;;4885407;29;20179;-42
2022/09/10 01:12:48;;;;;;;16.23;11.63;;;;;;;;;;4877854;29;20245;-42
2022/09/10 01:15:23;;;;;;;16.13;11.20;;;;;;;;;;4885557;29;20212;-43
2022/09/10 01:18:08;;;;;;;13.50;10.20;;;;;;;;;;4885831;28;20514;-43
2022/09/10 01:20:37;;;;;;;14.90;10.70;;;;;;;;;;4887363;29;20291;-43
2022/09/10 01:23:18;;;;;;;14.80;10.33;;;;;;;;;;4888287;29;21231;-42
2022/09/10 01:25:48;;;;;;;15.17;10.13;;;;;;;;;;4887801;29;20369;-44
2022/09/10 01:28:19;;;;;;;13.33;10.57;;;;;;;;;;4887857;29;20566;-43
2022/09/10 01:30:47;;;;;;;12.90;9.80;;;;;;;;;;4886862;29;20506;-42
2022/09/10 01:33:16;;;;;;;13.40;9.70;;;;;;;;;;4887318;29;20184;-43
2022/09/10 01:35:48;;;;;;;14.03;10.10;;;;;;;;;;4886804;29;20598;-44
2022/09/10 01:38:18;;;;;;;14.10;10.43;;;;;;;;;;4886498;29;20749;-43
2022/09/10 01:40:45;;;;;;;12.07;8.87;;;;;;;;;;4882262;29;20192;-42
2022/09/10 01:43:11;;;;;;;13.93;10.63;;;;;;;;;;4883841;29;20211;-42
2022/09/10 01:45:53;;;;;;;18.50;10.07;;;;;;;;;;4884512;29;20714;-43
2022/09/10 01:48:28;;;;;;;13.37;10.47;;;;;;;;;;4882309;29;20291;-44
2022/09/10 01:51:03;;;;;;;12.97;9.60;;;;;;;;;;4887321;29;20178;-44
2022/09/10 01:53:47;;;;;;;10.13;8.30;;;;;;;;;;4884619;29;20210;-44
2022/09/10 01:56:23;;;;;;;14.93;9.93;;;;;;;;;;4886454;29;21523;-43
2022/09/10 01:58:49;;;;;;;12.33;9.27;;;;;;;;;;4886823;29;20184;-44
2022/09/10 02:01:21;;;;;;;10.27;8.33;;;;;;;;;;4885014;29;20784;-44
2022/09/10 02:03:48;;;;;;;13.30;9.40;;;;;;;;;;4881753;29;20214;-43
2022/09/10 02:06:15;;;;;;;11.03;8.97;;;;;;;;;;4885920;29;20535;-43
2022/09/10 02:08:44;;;;;;;15.43;10.27;;;;;;;;;;4886889;29;20407;-43
2022/09/10 02:11:13;;;;;;;14.47;10.20;;;;;;;;;;4886790;29;20232;-44
2022/09/10 02:13:41;;;;;;;14.17;10.33;;;;;;;;;;4887271;29;20519;-43
2022/09/10 02:16:27;;;;;;;12.70;10.73;;;;;;;;;;4884700;29;20640;-43
2022/09/10 02:18:54;;;;;;;15.53;11.20;;;;;;;;;;4888640;29;20724;-43
2022/09/10 02:21:20;;;;;;;10.93;9.83;;;;;;;;;;4889184;29;20406;-44
2022/09/10 02:23:49;;;;;;;15.83;11.20;;;;;;;;;;4888034;29;20189;-43
2022/09/10 02:26:15;;;;;;;17.70;11.30;;;;;;;;;;4901420;28;20268;-43
2022/09/10 02:28:42;;;;;;;13.73;9.87;;;;;;;;;;4890723;29;20465;-43
2022/09/10 02:31:09;;;;;;;13.10;10.17;;;;;;;;;;4889861;29;21111;-43
2022/09/10 02:33:35;;;;;;;12.60;9.90;;;;;;;;;;4888428;29;20519;-43
2022/09/10 02:36:01;;;;;;;10.60;8.97;;;;;;;;;;4893824;28;20242;-42
2022/09/10 02:38:30;;;;;;;13.70;9.47;;;;;;;;;;4889474;28;20353;-43
2022/09/10 02:40:58;;;;;;;12.47;10.00;;;;;;;;;;4887309;29;20598;-43
2022/09/10 02:43:25;;;;;;;15.50;8.87;;;;;;;;;;4888270;29;20960;-43
2022/09/10 02:45:54;;;;;;;11.70;9.00;;;;;;;;;;4887402;29;20291;-42
2022/09/10 02:48:20;;;;;;;11.97;8.67;;;;;;;;;;4887120;29;20533;-43
2022/09/10 02:50:46;;;;;;;12.03;7.90;;;;;;;;;;4886887;29;20408;-43
2022/09/10 02:53:12;;;;;;;10.77;7.53;;;;;;;;;;4883476;29;20180;-43
2022/09/10 02:55:39;;;;;;;9.63;7.53;;;;;;;;;;4884679;29;20215;-43
2022/09/10 02:58:05;;;;;;;9.53;7.23;;;;;;;;;;4887526;29;20984;-43
2022/09/10 03:00:32;;;;;;;11.17;7.30;;;;;;;;;;4888332;29;20185;-44
2022/09/10 03:02:58;;;;;;;8.07;6.83;;;;;;;;;;4887272;29;20634;-43
2022/09/10 03:05:24;;;;;;;7.27;6.27;;;;;;;;;;4886265;29;20189;-42
2022/09/10 03:07:50;;;;;;;9.53;6.53;;;;;;;;;;4887497;28;21034;-43
2022/09/10 03:10:16;;;;;;;8.30;6.13;;;;;;;;;;4886680;29;20173;-43
2022/09/10 03:12:44;;;;;;;9.67;5.60;;;;;;;;;;4885273;29;20414;-44
2022/09/10 03:15:11;;;;;;;6.17;5.17;;;;;;;;;;4889875;29;20187;-43
2022/09/10 03:17:37;;;;;;;6.60;5.57;;;;;;;;;;4892006;29;20883;-42
2022/09/10 03:20:04;;;;;;;6.40;5.60;;;;;;;;;;4889727;29;20300;-42
2022/09/10 03:22:30;;;;;;;8.13;5.40;;;;;;;;;;4885997;29;20184;-43
2022/09/10 03:24:57;;;;;;;6.00;5.13;;;;;;;;;;4888820;29;20207;-44
2022/09/10 03:27:25;;;;;;;8.83;6.00;;;;;;;;;;4892541;29;20204;-43
2022/09/10 03:29:51;;;;;;;7.43;4.50;;;;;;;;;;4889034;29;20181;-43
2022/09/10 03:32:17;;;;;;;6.70;4.93;;;;;;;;;;4885684;29;20653;-43
2022/09/10 03:34:43;;;;;;;5.37;4.53;;;;;;;;;;4886523;29;20772;-42
2022/09/10 03:37:09;;;;;;;9.13;4.67;;;;;;;;;;4887216;29;20192;-43
2022/09/10 03:39:35;;;;;;;7.67;4.20;;;;;;;;;;4886468;29;20187;-43
2022/09/10 03:42:04;;;;;;;5.70;3.77;;;;;;;;;;4887414;29;20563;-42
2022/09/10 03:44:32;;;;;;;5.40;4.13;;;;;;;;;;4886553;29;20428;-43
2022/09/10 03:46:58;;;;;;;7.53;3.87;;;;;;;;;;4888133;29;20679;-43
2022/09/10 03:49:24;;;;;;;6.30;4.03;;;;;;;;;;4887567;28;20697;-43
2022/09/10 03:51:50;;;;;;;5.23;3.90;;;;;;;;;;4887774;29;20733;-43
2022/09/10 03:54:16;;;;;;;5.67;3.80;;;;;;;;;;4885246;29;20788;-44
2022/09/10 03:56:43;;;;;;;6.63;4.10;;;;;;;;;;4888605;29;20186;-43
2022/09/10 03:59:09;;;;;;;6.13;3.93;;;;;;;;;;4889304;29;20180;-43
2022/09/10 04:01:35;;;;;;;9.23;5.23;;;;;;;;;;4898442;28;20905;-43
2022/09/10 04:04:02;;;;;;;6.83;4.60;;;;;;;;;;4887374;29;20335;-42
2022/09/10 04:06:31;;;;;;;7.47;5.23;;;;;;;;;;4887056;29;20547;-43
2022/09/10 04:08:57;;;;;;;11.07;5.60;;;;;;;;;;4890520;29;20184;-42
2022/09/10 04:11:26;;;;;;;13.27;6.43;;;;;;;;;;4887024;29;20964;-43
2022/09/10 04:13:52;;;;;;;14.53;5.93;;;;;;;;;;4888047;29;20181;-43
2022/09/10 04:16:18;;;;;;;10.33;5.00;;;;;;;;;;4882177;29;20181;-43
2022/09/10 04:18:45;;;;;;;11.50;5.13;;;;;;;;;;4886101;29;20906;-43
2022/09/10 04:21:11;;;;;;;14.67;4.93;;;;;;;;;;4884620;29;20180;-44
2022/09/10 04:23:40;;;;;;;7.83;4.33;;;;;;;;;;4883281;29;20184;-43
2022/09/10 04:26:16;;;;;;;10.43;4.33;;;;;;;;;;4882638;29;20200;-43
2022/09/10 04:28:42;;;;;;;7.10;4.47;;;;;;;;;;4883429;28;20899;-42
2022/09/10 04:31:08;;;;;;;8.10;5.13;;;;;;;;;;4885061;29;20267;-43
2022/09/10 04:33:35;;;;;;;7.93;4.83;;;;;;;;;;4883149;29;20646;-43
2022/09/10 04:36:01;;;;;;;7.57;4.93;;;;;;;;;;4881353;29;20345;-43
2022/09/10 04:38:29;;;;;;;7.67;5.23;;;;;;;;;;4880000;29;20184;-43
2022/09/10 04:40:56;;;;;;;7.23;5.23;;;;;;;;;;4881661;28;20194;-43
2022/09/10 04:43:24;;;;;;;7.37;5.50;;;;;;;;;;4882269;29;20180;-42
2022/09/10 04:45:50;;;;;;;6.87;5.97;;;;;;;;;;4881723;29;21065;-43
2022/09/10 04:48:16;;;;;;;6.97;5.93;;;;;;;;;;4882809;29;21028;-43
2022/09/10 04:50:43;;;;;;;8.87;6.60;;;;;;;;;;4887719;29;20183;-43
2022/09/10 04:53:09;;;;;;;8.07;6.43;;;;;;;;;;4889317;29;20767;-43
2022/09/10 04:55:36;;;;;;;11.57;7.10;;;;;;;;;;4886094;29;20184;-42
2022/09/10 04:58:02;;;;;;;8.37;7.13;;;;;;;;;;4887905;29;20506;-42
2022/09/10 05:00:28;;;;;;;8.33;7.23;;;;;;;;;;4885154;29;20184;-42
2022/09/10 05:02:54;;;;;;;8.77;6.93;;;;;;;;;;4884206;29;20168;-42
2022/09/10 05:05:20;;;;;;;10.40;7.03;;;;;;;;;;4884521;29;20187;-42
2022/09/10 05:07:47;;;;;;;11.37;6.73;;;;;;;;;;4886789;29;20227;-43
2022/09/10 05:10:14;;;;;;;11.00;7.80;;;;;;;;;;4883052;29;20369;-42
2022/09/10 05:12:40;;;;;;;10.83;7.73;;;;;;;;;;4885516;29;20334;-43
2022/09/10 05:15:06;;;;;;;9.43;7.60;;;;;;;;;;4887914;29;20183;-42
2022/09/10 05:17:33;;;;;;;10.23;8.40;;;;;;;;;;4888266;29;20188;-43
2022/09/10 05:19:59;;;;;;;12.97;7.77;;;;;;;;;;4887159;29;20210;-43
2022/09/10 05:22:25;;;;;;;10.70;8.70;;;;;;;;;;4884907;29;20192;-43
2022/09/10 05:24:54;;;;;;;8.93;7.73;;;;;;;;;;4888162;29;20203;-42
2022/09/10 05:27:20;;;;;;;10.53;7.77;;;;;;;;;;4887528;29;20665;-43
2022/09/10 05:29:46;;;;;;;9.67;7.93;;;;;;;;;;4888047;29;20216;-43
2022/09/10 05:32:12;;;;;;;12.13;8.00;;;;;;;;;;4888623;29;20172;-43
2022/09/10 05:34:38;;;;;;;11.20;7.87;;;;;;;;;;4885838;29;20183;-43
2022/09/10 05:37:07;;;;;;;10.33;7.77;;;;;;;;;;4887921;29;20820;-43
2022/09/10 05:39:33;;;;;;;12.53;8.17;;;;;;;;;;4886855;29;20180;-42
2022/09/10 05:42:01;;;;;;;9.50;8.50;;;;;;;;;;4886130;29;20207;-43
2022/09/10 05:44:27;;;;;;;11.30;8.00;;;;;;;;;;4880046;29;20720;-43
2022/09/10 05:46:53;;;;;;;11.63;8.07;;;;;;;;;;4882839;29;20495;-43
2022/09/10 05:49:19;;;;;;;11.37;8.03;;;;;;;;;;4885989;29;20562;-43
2022/09/10 05:51:45;;;;;;;10.30;8.70;;;;;;;;;;4884664;29;20248;-43
2022/09/10 05:54:11;;;;;;;10.80;7.93;;;;;;;;;;4884825;29;20190;-42
2022/09/10 05:56:37;;;;;;;14.20;8.43;;;;;;;;;;4888646;29;20188;-43
2022/09/10 05:59:04;;;;;;;12.57;9.50;;;;;;;;;;4886193;29;20215;-42
2022/09/10 06:01:30;;;;;;;11.60;8.90;;;;;;;;;;4881360;29;21880;-42
2022/09/10 06:03:57;;;;;;;11.53;9.80;;;;;;;;;;4883554;29;20180;-43
2022/09/10 06:06:27;;;;;;;13.27;9.90;;;;;;;;;;4885478;29;20573;-43
2022/09/10 06:08:53;;;;;;;10.27;9.23;;;;;;;;;;4882013;29;20658;-43
2022/09/10 06:11:19;;;;;;;14.83;10.73;;;;;;;;;;4881966;29;20655;-42
2022/09/10 06:13:46;;;;;;;16.57;10.67;;;;;;;;;;4884827;29;20279;-42
2022/09/10 06:16:12;;;;;;;15.50;10.73;;;;;;;;;;4887920;28;20184;-41
2022/09/10 06:18:38;;;;;;;14.10;10.50;;;;;;;;;;4884416;29;20404;-42
2022/09/10 06:21:05;;;;;;;15.27;10.67;;;;;;;;;;4883499;29;20928;-42
2022/09/10 06:23:32;;;;;;;17.83;11.63;;;;;;;;;;4899733;28;20613;-43
2022/09/10 06:26:17;;;;;;;15.27;10.37;;;;;;;;;;4889842;29;20908;-43
2022/09/10 06:28:43;;;;;;;13.03;10.80;;;;;;;;;;4888496;29;20181;-43
2022/09/10 06:31:16;;;;;;;15.00;10.97;;;;;;;;;;4886045;29;20589;-44
2022/09/10 06:33:43;;;;;;;12.67;10.17;;;;;;;;;;4884643;29;20197;-42
2022/09/10 06:36:10;;;;;;;14.60;10.33;;;;;;;;;;4888375;29;20196;-43
2022/09/10 06:38:36;;;;;;;11.07;8.57;;;;;;;;;;4882332;29;20826;-43
2022/09/10 06:41:04;;;;;;;16.63;9.17;;;;;;;;;;4885023;29;20729;-43
2022/09/10 06:43:35;;;;;;;13.93;8.60;;;;;;;;;;4887826;29;20674;-43
2022/09/10 06:46:04;;;;;;;12.57;8.47;;;;;;;;;;4889451;29;20656;-43
2022/09/10 06:48:30;;;;;;;10.87;7.20;;;;;;;;;;4887038;29;20275;-43
2022/09/10 06:50:59;;;;;;;11.33;7.90;;;;;;;;;;4883088;29;20575;-43
2022/09/10 06:53:27;;;;;;;12.53;7.77;;;;;;;;;;4884604;29;20200;-42
2022/09/10 06:55:53;;;;;;;9.50;7.47;;;;;;;;;;4889747;29;20215;-43
2022/09/10 06:58:20;;;;;;;11.67;7.40;;;;;;;;;;4890432;29;21096;-43
2022/09/10 07:00:47;;;;;;;11.07;7.67;;;;;;;;;;4888728;28;20188;-41
2022/09/10 07:03:14;;;;;;;11.60;6.80;;;;;;;;;;4888972;29;20221;-43
2022/09/10 07:05:41;;;;;;;8.40;6.20;;;;;;;;;;4893653;29;20188;-43
2022/09/10 07:08:07;;;;;;;9.20;6.77;;;;;;;;;;4898839;29;20177;-41
2022/09/10 07:10:36;;;;;;;10.87;6.97;;;;;;;;;;4899386;29;20936;-43
2022/09/10 07:13:02;;;;;;;14.27;6.83;;;;;;;;;;4902027;29;20580;-43
2022/09/10 07:15:28;;;;;;;11.13;6.37;;;;;;;;;;4897614;29;21077;-43
2022/09/10 07:17:54;;;;;;;9.43;6.17;;;;;;;;;;4896389;29;20733;-43
2022/09/10 07:20:22;;;;;;;9.37;6.20;;;;;;;;;;4896179;29;20709;-42
2022/09/10 07:22:52;;;;;;;10.23;6.03;;;;;;;;;;4900396;29;20729;-43
2022/09/10 07:25:18;;;;;;;11.03;6.67;;;;;;;;;;4900228;29;20206;-43
2022/09/10 07:27:44;;;;;;;8.67;4.67;;;;;;;;;;4897263;29;20207;-43
2022/09/10 07:30:11;;;;;;;8.23;5.27;;;;;;;;;;4899489;29;20184;-43
2022/09/10 07:32:37;;;;;;;10.70;5.00;;;;;;;;;;4899272;29;20649;-43
2022/09/10 07:35:03;;;;;;;7.47;4.43;;;;;;;;;;4897894;29;20595;-42
2022/09/10 07:37:30;;;;;;;9.67;4.93;;;;;;;;;;4900568;29;20274;-43
2022/09/10 07:39:56;;;;;;;9.83;4.90;;;;;;;;;;4897981;29;20215;-42
2022/09/10 07:42:24;;;;;;;7.17;4.37;;;;;;;;;;4901082;29;20193;-43
2022/09/10 07:44:50;;;;;;;8.00;4.47;;;;;;;;;;4907189;28;20212;-43
2022/09/10 07:47:16;;;;;;;9.67;3.73;;;;;;;;;;4896484;28;20200;-42
2022/09/10 07:49:43;;;;;;;6.30;3.07;;;;;;;;;;4896467;29;20197;-43
2022/09/10 07:52:10;;;;;;;6.90;3.33;;;;;;;;;;4900495;29;20218;-43
2022/09/10 07:54:37;;;;;;;8.50;3.20;;;;;;;;;;4900669;29;20176;-43
2022/09/10 07:57:04;;;;;;;8.67;3.30;;;;;;;;;;4901462;29;21036;-43
2022/09/10 07:59:30;;;;;;;7.20;3.23;;;;;;;;;;4897850;29;20263;-43
2022/09/10 08:01:58;;;;;;;6.93;2.50;;;;;;;;;;4899136;29;20187;-43
2022/09/10 08:04:24;;;;;;;6.47;2.50;;;;;;;;;;4900543;29;20187;-42
2022/09/10 08:06:50;;;;;;;8.00;2.60;;;;;;;;;;4898928;29;20634;-43
2022/09/10 08:09:18;;;;;;;5.80;2.43;;;;;;;;;;4898029;29;20176;-43
2022/09/10 08:11:44;;;;;;;5.87;2.40;;;;;;;;;;4899641;29;20184;-43
2022/09/10 08:14:12;;;;;;;6.47;2.50;;;;;;;;;;4901131;29;20590;-43
2022/09/10 08:16:38;;;;;;;6.07;2.30;;;;;;;;;;4896017;29;20290;-44
2022/09/10 08:19:04;;;;;;;5.67;2.30;;;;;;;;;;4897020;29;20183;-44
2022/09/10 08:21:30;;;;;;;6.63;2.20;;;;;;;;;;4900757;29;20766;-44
2022/09/10 08:23:57;;;;;;;4.93;2.33;;;;;;;;;;4900045;29;20200;-44
2022/09/10 08:26:24;;;;;;;6.80;2.43;;;;;;;;;;4899541;29;20394;-44
2022/09/10 08:28:54;;;;;;;6.00;2.20;;;;;;;;;;4895101;29;20172;-44
2022/09/10 08:31:21;;;;;;;5.17;1.70;;;;;;;;;;4898840;28;20563;-44
2022/09/10 08:33:50;;;;;;;6.17;2.00;;;;;;;;;;4901091;29;20247;-43
2022/09/10 08:36:17;;;;;;;6.17;1.87;;;;;;;;;;4900359;29;20184;-44
2022/09/10 08:38:43;;;;;;;11.40;2.53;;;;;;;;;;4896121;29;20188;-44
2022/09/10 08:41:20;;;;;;;12.30;2.90;;;;;;;;;;4899066;29;20601;-44
2022/09/10 08:43:49;;;;;;;23.87;4.07;;;;;;;;;;4897212;29;20303;-44
2022/09/10 08:46:22;;;;;;;6.20;2.30;;;;;;;;;;4898048;29;20454;-44
2022/09/10 08:48:53;;;;;;;7.10;1.93;;;;;;;;;;4897711;29;20184;-43
2022/09/10 08:51:26;;;;;;;6.27;1.80;;;;;;;;;;4896736;29;20336;-44
2022/09/10 08:53:59;;;;;;;8.90;2.33;;;;;;;;;;4898167;29;20537;-44
2022/09/10 08:56:26;;;;;;;13.20;3.30;;;;;;;;;;4900994;29;20634;-44
2022/09/10 08:59:01;;;;;;;5.07;2.80;;;;;;;;;;4899517;29;20184;-44
2022/09/10 09:01:51;;;;;;;7.07;3.33;;;;;;;;;;4896936;29;20563;-43
2022/09/10 09:04:26;;;;;;;5.27;2.90;;;;;;;;;;4902161;28;20444;-44
2022/09/10 09:06:54;;;;;;;11.93;3.27;;;;;;;;;;4899293;29;20200;-44
2022/09/10 09:09:21;;;;;;;6.13;3.00;;;;;;;;;;4896139;29;21052;-43
2022/09/10 09:11:47;;;;;;;5.57;3.20;;;;;;;;;;4894852;29;20876;-44
2022/09/10 09:14:26;;;;;;;8.20;3.13;;;;;;;;;;4897436;29;20183;-44
2022/09/10 09:16:52;;;;;;;8.00;2.80;;;;;;;;;;4895674;29;20180;-44
2022/09/10 09:19:35;;;;;;;6.47;2.57;;;;;;;;;;4895286;29;20198;-44
2022/09/10 09:22:07;;;;;;;6.13;3.40;;;;;;;;;;4896548;29;20212;-44
2022/09/10 09:24:43;;;;;;;5.20;2.67;;;;;;;;;;4891373;29;20657;-43
2022/09/10 09:27:12;;;;;;;6.07;2.53;;;;;;;;;;4895354;29;20533;-44
2022/09/10 09:29:44;;;;;;;6.27;2.50;;;;;;;;;;4903318;29;20180;-43
2022/09/10 09:32:14;;;;;;;8.03;2.90;;;;;;;;;;4917870;29;20509;-44
2022/09/10 09:34:43;;;;;;;4.13;2.60;;;;;;;;;;4900536;29;20175;-44
2022/09/10 09:37:23;;;;;;;4.90;2.50;;;;;;;;;;4901084;28;20739;-43
2022/09/10 09:40:07;;;;;;;6.40;2.80;;;;;;;;;;4900420;29;20412;-44
2022/09/10 09:42:55;;;;;;;4.03;2.63;;;;;;;;;;4903773;29;20180;-44
2022/09/10 09:45:36;;;;;;;4.60;2.33;;;;;;;;;;4904852;29;20195;-44
2022/09/10 09:48:07;;;;;;;3.67;2.37;;;;;;;;;;4898460;29;20435;-44
2022/09/10 09:50:34;;;;;;;8.10;2.37;;;;;;;;;;4898495;29;20183;-44
2022/09/10 09:53:00;;;;;;;3.37;2.20;;;;;;;;;;4905005;29;20304;-44
2022/09/10 09:55:26;;;;;;;9.03;2.50;;;;;;;;;;4901174;29;20593;-43
2022/09/10 09:58:11;;;;;;;2.43;1.80;;;;;;;;;;4900981;29;20412;-43
2022/09/10 10:00:38;;;;;;;7.47;2.37;;;;;;;;;;4898593;29;20195;-44
2022/09/10 10:03:06;;;;;;;5.93;2.33;;;;;;;;;;4902524;29;20192;-43
2022/09/10 10:05:32;;;;;;;6.60;2.33;;;;;;;;;;4902864;29;20359;-43
2022/09/10 10:07:58;;;;;;;5.10;2.20;;;;;;;;;;4897723;29;20216;-44
2022/09/10 10:10:25;;;;;;;4.50;2.20;;;;;;;;;;4900509;29;20191;-42
2022/09/10 10:12:53;;;;;;;9.60;2.27;;;;;;;;;;4899684;29;20416;-44
2022/09/10 10:15:52;;;;;;;3.70;1.93;;;;;;;;;;4896625;29;21212;-43
2022/09/10 10:18:21;;;;;;;7.10;2.00;;;;;;;;;;4908182;28;20198;-44
2022/09/10 10:21:07;;;;;;;4.60;2.17;;;;;;;;;;4899256;29;20207;-44
2022/09/10 10:23:37;;;;;;;4.30;1.90;;;;;;;;;;4899444;29;20447;-43
2022/09/10 10:26:16;;;;;;;4.70;1.90;;;;;;;;;;4902118;29;20208;-43
2022/09/10 10:29:08;;;;;;;2.97;1.80;;;;;;;;;;4903659;29;20322;-43
2022/09/10 10:31:45;;;;;;;8.30;2.10;;;;;;;;;;4913080;28;20203;-44
2022/09/10 10:34:16;;;;;;;7.20;2.43;;;;;;;;;;4900267;29;20607;-44
2022/09/10 10:37:00;;;;;;;4.00;1.73;;;;;;;;;;4899630;29;20481;-42
2022/09/10 10:39:29;;;;;;;5.93;1.73;;;;;;;;;;4896197;29;20843;-44
2022/09/10 10:41:55;;;;;;;5.63;1.50;;;;;;;;;;4894460;29;20279;-43
2022/09/10 10:44:35;;;;;;;2.37;1.20;;;;;;;;;;4899507;29;20188;-43
2022/09/10 10:47:18;;;;;;;9.13;1.70;;;;;;;;;;4899957;29;20696;-44
2022/09/10 10:49:52;;;;;;;8.27;1.47;;;;;;;;;;4901553;29;20214;-43
2022/09/10 10:52:37;;;;;;;4.97;1.67;;;;;;;;;;4914238;28;20172;-44
2022/09/10 10:55:11;;;;;;;2.90;1.37;;;;;;;;;;4896042;29;20764;-43
2022/09/10 10:57:37;;;;;;;5.60;1.60;;;;;;;;;;4897494;29;20182;-44
2022/09/10 11:00:06;;;;;;;6.10;1.43;;;;;;;;;;4898947;29;20680;-42
2022/09/10 11:02:55;;;;;;;7.33;1.50;;;;;;;;;;4900411;29;20535;-42
2022/09/10 11:05:30;;;;;;;5.17;1.47;;;;;;;;;;4898266;28;20302;-42
2022/09/10 11:07:58;;;;;;;8.30;1.63;;;;;;;;;;4898936;29;20623;-42
2022/09/10 11:10:38;;;;;;;5.87;1.50;;;;;;;;;;4896279;29;20544;-42
2022/09/10 11:13:10;;;;;;;5.90;1.40;;;;;;;;;;4898450;28;20222;-42
2022/09/10 11:15:48;;;;;;;3.80;1.30;;;;;;;;;;4899415;29;20984;-42
2022/09/10 11:18:27;;;;;;;4.17;1.30;;;;;;;;;;4894677;29;20184;-43
2022/09/10 11:21:12;;;;;;;3.40;1.33;;;;;;;;;;4899758;28;20184;-42
2022/09/10 11:23:45;;;;;;;4.73;1.30;;;;;;;;;;4901381;29;20329;-42
2022/09/10 11:26:11;;;;;;;10.27;1.30;;;;;;;;;;4899680;29;20594;-42
2022/09/10 11:28:44;;;;;;;4.87;1.30;;;;;;;;;;4896142;29;20733;-42
2022/09/10 11:31:29;;;;;;;7.37;1.43;;;;;;;;;;4899134;29;20647;-43
2022/09/10 11:33:59;;;;;;;3.00;1.40;;;;;;;;;;4901236;29;20306;-42
2022/09/10 11:36:37;;;;;;;4.17;1.40;;;;;;;;;;4893593;29;20494;-43
2022/09/10 11:39:16;;;;;;;2.83;1.20;;;;;;;;;;4897311;29;20194;-43
2022/09/10 11:41:43;;;;;;;5.33;1.30;;;;;;;;;;4901885;29;20180;-42
2022/09/10 11:44:18;;;;;;;5.30;1.43;;;;;;;;;;4899357;29;20184;-43
2022/09/10 11:47:01;;;;;;;4.83;1.20;;;;;;;;;;4901706;29;20695;-42
2022/09/10 11:49:36;;;;;;;1.80;1.17;;;;;;;;;;4896645;29;20180;-43
2022/09/10 11:52:02;;;;;;;6.00;1.30;;;;;;;;;;4894912;29;20176;-40
2022/09/10 11:54:37;;;;;;;4.33;1.40;;;;;;;;;;4896992;29;20754;-42
2022/09/10 11:57:04;;;;;;;5.33;1.43;;;;;;;;;;4899036;29;20263;-42
2022/09/10 11:59:36;;;;;;;3.13;1.27;;;;;;;;;;4896990;29;20283;-42
2022/09/10 12:02:05;;;;;;;3.97;1.17;;;;;;;;;;4899050;29;20772;-42
2022/09/10 12:04:45;;;;;;;5.03;1.27;;;;;;;;;;4899839;28;20772;-43
2022/09/10 12:07:14;;;;;;;5.17;1.40;;;;;;;;;;4897838;29;20740;-44
2022/09/10 12:09:59;;;;;;;1.63;0.97;;;;;;;;;;4904922;28;20192;-42
2022/09/10 12:12:30;;;;;;;4.60;1.20;;;;;;;;;;4900493;28;20600;-40
2022/09/10 12:14:56;;;;;;;5.17;1.43;;;;;;;;;;4897129;29;20681;-42
2022/09/10 12:17:26;;;;;;;7.73;1.40;;;;;;;;;;4897631;29;20702;-42
2022/09/10 12:19:54;;;;;;;4.73;1.33;;;;;;;;;;4899505;29;20602;-42
2022/09/10 12:22:24;;;;;;;4.63;1.20;;;;;;;;;;4895627;29;20180;-42
2022/09/10 12:24:53;;;;;;;3.47;1.10;;;;;;;;;;4898100;29;20613;-41
2022/09/10 12:27:19;;;;;;;4.03;1.23;;;;;;;;;;4900612;29;20579;-42
2022/09/10 12:29:47;;;;;;;4.57;1.20;;;;;;;;;;4902907;29;20339;-42
2022/09/10 12:32:19;;;;;;;6.73;1.43;;;;;;;;;;4902127;29;20175;-42
2022/09/10 12:34:49;;;;;;;3.23;1.37;;;;;;;;;;4897903;29;20622;-42
2022/09/10 12:37:28;;;;;;;2.87;1.13;;;;;;;;;;4898459;29;20683;-42
2022/09/10 12:40:13;;;;;;;2.80;1.13;;;;;;;;;;4899478;29;20610;-41
2022/09/10 12:42:41;;;;;;;3.80;1.27;;;;;;;;;;4898235;29;20191;-42
2022/09/10 12:45:08;;;;;;;5.03;1.23;;;;;;;;;;4900021;29;20188;-41
2022/09/10 12:47:41;;;;;;;5.83;1.40;;;;;;;;;;4899905;29;20204;-42
2022/09/10 12:50:22;;;;;;;4.57;1.40;;;;;;;;;;4897389;29;20172;-42
2022/09/10 12:52:51;;;;;;;5.97;1.10;;;;;;;;;;4898671;29;20187;-42
2022/09/10 12:55:36;;;;;;;5.17;1.37;;;;;;;;;;4898500;29;20561;-42
2022/09/10 12:58:20;;;;;;;3.73;1.03;;;;;;;;;;4895423;29;20298;-42
2022/09/10 13:00:46;;;;;;;7.97;1.50;;;;;;;;;;4897030;29;20237;-41
2022/09/10 13:03:17;;;;;;;3.60;1.30;;;;;;;;;;4896594;29;20510;-43
2022/09/10 13:05:43;;;;;;;4.07;1.27;;;;;;;;;;4898587;28;20925;-43
2022/09/10 13:08:15;;;;;;;3.77;1.30;;;;;;;;;;4899053;29;20214;-43
2022/09/10 13:10:46;;;;;;;5.10;1.43;;;;;;;;;;4894706;29;20191;-43
2022/09/10 13:13:38;;;;;;;3.47;1.20;;;;;;;;;;4899302;29;20408;-43
2022/09/10 13:16:04;;;;;;;6.03;1.40;;;;;;;;;;4899513;28;20188;-43
2022/09/10 13:18:32;;;;;;;4.03;1.30;;;;;;;;;;4897118;29;20557;-42
2022/09/10 13:20:59;;;;;;;5.57;1.60;;;;;;;;;;4897156;29;20180;-43
2022/09/10 13:23:51;;;;;;;4.70;1.07;;;;;;;;;;4896785;29;20180;-42
2022/09/10 13:26:36;;;;;;;6.00;1.50;;;;;;;;;;4892742;29;20479;-42
2022/09/10 13:29:10;;;;;;;5.87;1.60;;;;;;;;;;4887535;29;20172;-43
2022/09/10 13:31:41;;;;;;;4.13;1.40;;;;;;;;;;4884508;29;20271;-43
2022/09/10 13:34:13;;;;;;;5.00;1.70;;;;;;;;;;4891912;29;20261;-43
2022/09/10 13:36:58;;;;;;;6.13;1.47;;;;;;;;;;4899675;29;20614;-43
2022/09/10 13:39:44;;;;;;;5.07;1.43;;;;;;;;;;4894704;29;20724;-43
2022/09/10 13:42:22;;;;;;;3.20;1.03;;;;;;;;;;4894257;29;20176;-43
2022/09/10 13:45:07;;;;;;;4.87;1.53;;;;;;;;;;4894424;29;20200;-43
2022/09/10 13:47:45;;;;;;;3.33;1.63;;;;;;;;;;4895349;29;20207;-43
2022/09/10 13:50:25;;;;;;;7.63;2.03;;;;;;;;;;4893458;29;20732;-42
2022/09/10 13:52:55;;;;;;;5.10;1.53;;;;;;;;;;4897558;29;20476;-42
2022/09/10 13:55:25;;;;;;;5.53;1.67;;;;;;;;;;4897029;29;20181;-41
2022/09/10 13:57:53;;;;;;;4.97;1.90;;;;;;;;;;4895746;29;20180;-42
2022/09/10 14:00:22;;;;;;;3.10;1.20;;;;;;;;;;4896082;29;20230;-43
2022/09/10 14:02:59;;;;;;;2.87;1.40;;;;;;;;;;4894362;29;20192;-43
2022/09/10 14:05:25;;;;;;;4.73;1.40;;;;;;;;;;4896380;29;20297;-43
2022/09/10 14:07:52;;;;;;;6.40;1.37;;;;;;;;;;4895565;29;20248;-42
2022/09/10 14:10:18;;;;;;;6.00;1.40;;;;;;;;;;4894973;29;20697;-43
2022/09/10 14:12:45;;;;;;;4.60;1.20;;;;;;;;;;4896470;29;20180;-42
2022/09/10 14:15:15;;;;;;;3.87;1.30;;;;;;;;;;4898102;29;20483;-43
2022/09/10 14:17:44;;;;;;;3.87;1.30;;;;;;;;;;4897812;29;20781;-43
2022/09/10 14:20:17;;;;;;;3.93;1.30;;;;;;;;;;4899213;29;20638;-43
2022/09/10 14:22:44;;;;;;;4.53;1.40;;;;;;;;;;4898313;29;20237;-43
2022/09/10 14:25:26;;;;;;;3.13;1.20;;;;;;;;;;4897106;29;20203;-43
2022/09/10 14:27:52;;;;;;;3.63;1.30;;;;;;;;;;4894982;29;20789;-43
2022/09/10 14:30:25;;;;;;;5.13;1.87;;;;;;;;;;4893065;29;20609;-43
2022/09/10 14:32:51;;;;;;;4.13;1.30;;;;;;;;;;4896358;29;20172;-43
2022/09/10 14:35:37;;;;;;;13.97;1.73;;;;;;;;;;4901019;29;20732;-43
2022/09/10 14:38:08;;;;;;;4.83;1.37;;;;;;;;;;4898480;29;20705;-43
2022/09/10 14:40:37;;;;;;;3.53;1.10;;;;;;;;;;4894709;29;20188;-43
2022/09/10 14:43:14;;;;;;;8.60;1.50;;;;;;;;;;4895505;29;20855;-43
2022/09/10 14:45:48;;;;;;;6.23;1.37;;;;;;;;;;4893176;29;20688;-43
2022/09/10 14:48:43;;;;;;;5.77;1.10;;;;;;;;;;4897715;29;22686;-43
2022/09/10 14:51:13;;;;;;;3.07;1.20;;;;;;;;;;4897992;28;20386;-43
2022/09/10 14:53:40;;;;;;;3.80;1.20;;;;;;;;;;4895856;29;20369;-43